This is the latest recevied weather packets stored in our database for station/object DL4LAM-15. If no packets are shown the sender has not sent any weather packets the latest 10 day(s).
| Time | Temp. | Humidity | Pressure | Rain* | Wind** | Luminosity | Snow |
|---|---|---|---|---|---|---|---|
| 1777723517 | 28.89° C | 28% | 1017.1 hPa | 0 mm | - | - | - |
| 1777720517 | 27.22° C | 33% | 1017.7 hPa | 0 mm | - | - | - |
| 1777720217 | 26.67° C | 32% | 1017.9 hPa | 0 mm | - | - | - |
| 1777719317 | 26.11° C | 33% | 1018 hPa | 0 mm | - | - | - |
| 1777718417 | 26.11° C | 33% | 1018.1 hPa | 0 mm | - | - | - |
| 1777716917 | 26.11° C | 33% | 1018.3 hPa | 0 mm | - | - | - |
| 1777716617 | 26.11° C | 33% | 1018.3 hPa | 0 mm | - | - | - |
| 1777715717 | 26.67° C | 32% | 1018.7 hPa | 0 mm | - | - | - |
| 1777714817 | 26.11° C | 34% | 1018.9 hPa | 0 mm | - | - | - |
| 1777711517 | 23.89° C | 40% | 1019.1 hPa | 0 mm | - | - | - |
| 1777707617 | 21.11° C | 48% | 1019.5 hPa | 0 mm | - | - | - |
| 1777705217 | 18.89° C | 54% | 1019.9 hPa | 0 mm | - | - | - |
| 1777702217 | 16.67° C | 60% | 1020.2 hPa | 0 mm | - | - | - |
| 1777698017 | 13.89° C | 67% | 1020.5 hPa | 0 mm | - | - | - |
| 1777697117 | 13.33° C | 68% | 1020.5 hPa | 0 mm | - | - | - |
| 1777696818 | 13.33° C | 69% | 1020.5 hPa | 0 mm | - | - | - |
| 1777696517 | 12.78° C | 70% | 1020.5 hPa | 0 mm | - | - | - |
| 1777696217 | 12.78° C | 71% | 1020.5 hPa | 0 mm | - | - | - |
| 1777695017 | 12.22° C | 72% | 1020.5 hPa | 0 mm | - | - | - |
| 1777694117 | 12.22° C | 73% | 1020.6 hPa | 0 mm | - | - | - |
| 1777692017 | 12.22° C | 73% | 1020.8 hPa | 0 mm | - | - | - |
| 1777689317 | 11.11° C | 77% | 1021.2 hPa | 0 mm | - | - | - |
| 1777689017 | 11.11° C | 78% | 1021.2 hPa | 0 mm | - | - | - |
| 1777687217 | 11.11° C | 80% | 1021.4 hPa | 0 mm | - | - | - |
| 1777686017 | 11.11° C | 81% | 1021.5 hPa | 0 mm | - | - | - |
* Rain latest hour (hover to see other rain measurements)
** Current wind speed in m/s (hover to see current wind gust speed)